createdAt,value
2023-06-05T00:02:15.498Z,55.75
2023-06-05T00:04:42.271Z,55.65
2023-06-05T00:07:09.044Z,55.53
2023-06-05T00:09:36.157Z,55.40
2023-06-05T00:12:02.930Z,55.36
2023-06-05T00:14:29.592Z,55.83
2023-06-05T00:16:56.424Z,55.47
2023-06-05T00:19:23.312Z,55.59
2023-06-05T00:21:50.092Z,56.00
2023-06-05T00:24:17.116Z,56.13
2023-06-05T00:26:44.049Z,56.35
2023-06-05T00:29:10.929Z,56.23
2023-06-05T00:31:37.718Z,56.10
2023-06-05T00:34:04.399Z,56.09
2023-06-05T00:36:33.418Z,56.31
2023-06-05T00:39:00.089Z,55.99
2023-06-05T00:41:27.003Z,56.18
2023-06-05T00:43:53.738Z,56.33
2023-06-05T00:46:20.662Z,56.95
2023-06-05T00:48:47.780Z,56.97
2023-06-05T00:51:17.813Z,57.28
2023-06-05T00:53:48.337Z,57.55
2023-06-05T00:56:17.368Z,57.21
2023-06-05T00:58:44.164Z,57.04
2023-06-05T01:01:12.542Z,57.43
2023-06-05T01:03:39.670Z,57.43
2023-06-05T01:06:06.648Z,57.71
2023-06-05T01:08:35.049Z,57.96
2023-06-05T01:11:04.526Z,57.99
2023-06-05T01:13:36.265Z,57.78
2023-06-05T01:16:03.841Z,58.09
2023-06-05T01:18:30.772Z,57.58
2023-06-05T01:21:02.074Z,57.62
2023-06-05T01:23:29.134Z,57.39
2023-06-05T01:26:02.523Z,57.27
2023-06-05T01:28:31.926Z,57.33
2023-06-05T01:31:11.615Z,57.73
2023-06-05T01:34:10.366Z,58.11
2023-06-05T01:36:38.859Z,58.87
2023-06-05T01:39:06.337Z,58.71
2023-06-05T01:41:34.447Z,58.56
2023-06-05T01:44:02.305Z,58.55
2023-06-05T01:46:30.196Z,58.72
2023-06-05T01:48:57.621Z,58.65
2023-06-05T01:51:24.317Z,58.85
2023-06-05T01:53:51.023Z,59.33
2023-06-05T01:56:18.020Z,58.90
2023-06-05T01:58:44.789Z,59.49
2023-06-05T02:01:11.432Z,59.48
2023-06-05T02:03:38.361Z,59.41
2023-06-05T02:06:05.401Z,59.38
2023-06-05T02:08:32.214Z,59.60
2023-06-05T02:10:58.904Z,59.83
2023-06-05T02:13:25.631Z,59.29
2023-06-05T02:15:52.274Z,59.51
2023-06-05T02:18:19.223Z,59.78
2023-06-05T02:20:46.069Z,60.46
2023-06-05T02:23:12.832Z,60.40
2023-06-05T02:25:39.544Z,61.25
2023-06-05T02:28:06.345Z,61.51
2023-06-05T02:30:33.209Z,60.66
2023-06-05T02:32:59.878Z,61.11
2023-06-05T02:35:26.629Z,60.79
2023-06-05T02:37:53.543Z,61.27
2023-06-05T02:40:20.514Z,60.79
2023-06-05T02:42:47.214Z,60.63
2023-06-05T02:45:14.198Z,60.06
2023-06-05T02:47:40.952Z,60.00
2023-06-05T02:50:08.673Z,61.19
2023-06-05T02:52:35.378Z,59.89
2023-06-05T02:55:05.404Z,59.85
2023-06-05T02:57:32.515Z,60.47
2023-06-05T02:59:59.484Z,60.10
2023-06-05T03:02:26.572Z,59.93
2023-06-05T03:04:53.309Z,60.73
2023-06-05T03:07:23.268Z,60.10
2023-06-05T03:09:50.055Z,60.43
2023-06-05T03:12:16.737Z,60.34
2023-06-05T03:14:43.463Z,60.21
2023-06-05T03:17:10.136Z,60.13
2023-06-05T03:19:37.005Z,59.92
2023-06-05T03:22:03.988Z,59.22
2023-06-05T03:24:30.816Z,59.47
2023-06-05T03:26:57.494Z,59.73
2023-06-05T03:29:24.447Z,59.87
2023-06-05T03:31:51.445Z,59.47
2023-06-05T03:34:18.104Z,60.26
2023-06-05T03:36:44.806Z,60.53
2023-06-05T03:39:11.462Z,60.92
2023-06-05T03:41:38.153Z,60.73
2023-06-05T03:44:05.105Z,60.21
2023-06-05T03:46:32.035Z,61.12
2023-06-05T03:48:58.745Z,60.51
2023-06-05T03:51:26.899Z,60.47
2023-06-05T03:53:53.599Z,60.84
2023-06-05T03:56:22.861Z,59.80
2023-06-05T03:58:49.539Z,60.35
2023-06-05T04:01:16.287Z,60.73
2023-06-05T04:03:43.271Z,60.86
2023-06-05T04:06:10.078Z,60.21
2023-06-05T04:08:36.852Z,59.64
2023-06-05T04:11:03.535Z,60.38
2023-06-05T04:13:30.362Z,59.94
2023-06-05T04:15:57.312Z,60.07
2023-06-05T04:18:24.191Z,59.46
2023-06-05T04:20:50.930Z,58.79
2023-06-05T04:23:17.823Z,57.60
2023-06-05T04:25:44.512Z,57.49
2023-06-05T04:28:11.398Z,57.36
2023-06-05T04:30:38.524Z,56.93
2023-06-05T04:33:05.482Z,56.44
2023-06-05T04:35:32.278Z,56.52
2023-06-05T04:37:59.205Z,56.25
2023-06-05T04:40:26.269Z,55.46
2023-06-05T04:42:53.019Z,55.53
2023-06-05T04:45:19.865Z,54.78
2023-06-05T04:47:46.811Z,55.30
2023-06-05T04:50:27.928Z,54.79
2023-06-05T04:52:55.007Z,54.55
2023-06-05T04:55:22.440Z,54.21
2023-06-05T04:57:49.477Z,53.85
2023-06-05T05:00:19.234Z,53.86
2023-06-05T05:02:46.487Z,53.01
2023-06-05T05:05:13.417Z,52.70
2023-06-05T05:07:43.421Z,51.34
2023-06-05T05:10:11.182Z,51.45
2023-06-05T05:12:38.427Z,51.02
2023-06-05T05:15:06.297Z,51.15
2023-06-05T05:17:33.218Z,50.71
2023-06-05T05:19:59.990Z,50.08
2023-06-05T05:22:27.887Z,48.89
2023-06-05T05:24:54.981Z,49.69
2023-06-05T05:27:21.801Z,49.21
2023-06-05T05:29:51.214Z,48.46
2023-06-05T05:32:20.521Z,48.60
2023-06-05T05:34:47.311Z,47.18
2023-06-05T05:37:14.567Z,48.20
2023-06-05T05:39:46.829Z,48.07
2023-06-05T05:42:17.094Z,47.67
2023-06-05T05:47:24.659Z,46.81
2023-06-05T05:49:51.392Z,47.41
2023-06-05T05:52:20.428Z,46.53
2023-06-05T05:54:47.183Z,47.50
2023-06-05T05:57:15.280Z,48.73
2023-06-05T05:59:42.220Z,46.86
2023-06-05T06:02:12.656Z,46.85
2023-06-05T06:04:42.586Z,47.19
2023-06-05T06:07:09.431Z,45.36
2023-06-05T06:09:40.767Z,46.19
2023-06-05T06:12:08.013Z,44.94
2023-06-05T06:14:36.020Z,44.94
2023-06-05T06:17:03.674Z,44.52
2023-06-05T06:19:30.462Z,44.11
2023-06-05T06:22:03.012Z,45.36
2023-06-05T06:24:31.426Z,44.08
2023-06-05T06:26:58.900Z,43.72
2023-06-05T06:29:28.333Z,44.00
2023-06-05T06:31:55.104Z,43.28
2023-06-05T06:34:22.164Z,42.86
2023-06-05T06:36:49.009Z,42.62
2023-06-05T06:39:15.878Z,42.08
2023-06-05T06:41:42.692Z,42.28
2023-06-05T06:44:09.611Z,41.48
2023-06-05T06:46:41.302Z,40.91
2023-06-05T06:49:11.100Z,40.57
2023-06-05T06:51:37.864Z,40.49
2023-06-05T06:54:04.576Z,40.41
2023-06-05T06:56:31.281Z,39.97
2023-06-05T06:58:58.042Z,40.51
2023-06-05T07:01:25.135Z,40.35
2023-06-05T07:03:55.180Z,39.27
2023-06-05T07:06:24.679Z,39.65
2023-06-05T07:08:56.580Z,39.09
2023-06-05T07:11:27.062Z,39.18
2023-06-05T07:13:54.286Z,39.08
2023-06-05T07:16:24.559Z,39.75
2023-06-05T07:18:54.320Z,39.08
2023-06-05T07:21:26.390Z,38.38
2023-06-05T07:23:55.319Z,40.83
2023-06-05T07:26:22.238Z,38.07
2023-06-05T07:28:49.160Z,37.47
2023-06-05T07:31:22.296Z,36.85
2023-06-05T07:33:50.069Z,37.38
2023-06-05T07:36:17.096Z,36.55
2023-06-05T07:38:43.769Z,37.43
2023-06-05T07:41:12.454Z,37.19
2023-06-05T07:43:42.419Z,37.25
2023-06-05T07:46:09.252Z,37.28
2023-06-05T07:48:38.771Z,36.21
2023-06-05T07:51:05.549Z,36.68
2023-06-05T07:53:36.548Z,35.29
2023-06-05T07:56:03.885Z,36.78
2023-06-05T07:58:39.716Z,36.47
2023-06-05T08:01:06.395Z,36.06
2023-06-05T08:03:33.231Z,35.43
2023-06-05T08:06:00.255Z,35.84
2023-06-05T08:08:29.396Z,36.40
2023-06-05T08:11:06.950Z,35.97
2023-06-05T08:13:33.862Z,36.19
2023-06-05T08:16:00.780Z,35.53
2023-06-05T08:18:32.884Z,35.68
2023-06-05T08:20:59.753Z,35.92
2023-06-05T08:23:31.261Z,35.60
2023-06-05T08:26:08.140Z,34.89
2023-06-05T08:28:35.009Z,35.13
2023-06-05T08:31:01.916Z,34.24
2023-06-05T08:33:33.789Z,34.14
2023-06-05T08:36:05.968Z,34.04
2023-06-05T08:38:36.124Z,34.10
2023-06-05T08:41:15.204Z,34.53
2023-06-05T08:43:42.093Z,34.89
2023-06-05T08:46:14.456Z,34.75
2023-06-05T08:48:50.832Z,34.65
2023-06-05T08:51:22.271Z,34.47
2023-06-05T08:54:04.147Z,33.65
2023-06-05T08:56:32.704Z,32.89
2023-06-05T08:59:02.401Z,33.21
2023-06-05T09:01:30.925Z,33.89
2023-06-05T09:03:59.175Z,33.37
2023-06-05T09:06:25.947Z,33.82
2023-06-05T09:08:52.772Z,34.57
2023-06-05T09:11:29.370Z,33.49
2023-06-05T09:13:58.465Z,32.61
2023-06-05T09:16:44.996Z,33.17
2023-06-05T09:19:12.787Z,32.87
2023-06-05T09:22:32.791Z,33.22
2023-06-05T09:24:59.658Z,32.68
2023-06-05T09:27:26.614Z,33.15
2023-06-05T09:30:03.970Z,31.78
2023-06-05T09:32:30.870Z,32.90
2023-06-05T09:34:58.176Z,32.26
2023-06-05T09:37:37.331Z,31.96
2023-06-05T09:40:05.522Z,32.96
2023-06-05T09:42:33.281Z,33.63
2023-06-05T09:45:01.545Z,33.35
2023-06-05T09:47:33.137Z,32.43
2023-06-05T09:50:06.016Z,32.64
2023-06-05T09:52:36.155Z,32.61
2023-06-05T09:55:09.365Z,31.97
2023-06-05T09:57:43.487Z,32.55
2023-06-05T10:00:19.905Z,32.96
2023-06-05T10:02:55.370Z,32.63
2023-06-05T10:05:27.938Z,32.60
2023-06-05T10:07:55.002Z,33.20
2023-06-05T10:10:25.927Z,31.65
2023-06-05T10:12:55.704Z,31.57
2023-06-05T10:15:24.983Z,32.21
2023-06-05T10:17:57.129Z,31.88
2023-06-05T10:20:26.377Z,31.76
2023-06-05T10:22:54.177Z,31.18
2023-06-05T10:25:24.892Z,30.34
2023-06-05T10:28:19.170Z,30.54
2023-06-05T10:31:07.437Z,30.17
2023-06-05T10:33:45.687Z,31.04
2023-06-05T10:36:35.655Z,30.89
2023-06-05T10:39:03.854Z,30.63
2023-06-05T10:41:33.430Z,30.53
2023-06-05T10:44:01.476Z,30.67
2023-06-05T10:46:28.199Z,30.79
2023-06-05T10:49:17.302Z,29.82
2023-06-05T10:51:57.504Z,30.06
2023-06-05T10:54:24.305Z,30.32
2023-06-05T10:56:57.322Z,30.06
2023-06-05T10:59:26.382Z,29.23
2023-06-05T11:02:16.172Z,30.01
2023-06-05T11:04:45.555Z,30.68
2023-06-05T11:07:18.785Z,30.89
2023-06-05T11:10:03.503Z,30.79
2023-06-05T11:12:36.869Z,31.08
2023-06-05T11:15:11.356Z,30.38
2023-06-05T11:17:48.397Z,30.73
2023-06-05T11:20:24.510Z,30.12
2023-06-05T11:22:56.263Z,29.65
2023-06-05T11:25:22.879Z,30.66
2023-06-05T11:27:50.540Z,30.25
2023-06-05T11:30:28.017Z,30.00
2023-06-05T11:32:58.180Z,29.94
2023-06-05T11:35:29.273Z,29.54
2023-06-05T11:38:23.693Z,30.17
2023-06-05T11:40:51.233Z,30.42
2023-06-05T11:43:18.057Z,30.32
2023-06-05T11:46:05.052Z,29.63
2023-06-05T11:48:43.396Z,29.49
2023-06-05T11:51:10.268Z,29.99
2023-06-05T11:53:44.021Z,29.42
2023-06-05T11:56:15.245Z,30.98
2023-06-05T11:58:42.776Z,29.98
2023-06-05T12:01:19.799Z,29.46
2023-06-05T12:04:07.564Z,29.72
2023-06-05T12:06:46.000Z,29.84
2023-06-05T12:09:13.819Z,29.47
2023-06-05T12:11:42.263Z,30.15
2023-06-05T12:14:10.856Z,29.82
2023-06-05T12:16:46.258Z,29.41
2023-06-05T12:19:22.016Z,30.51
2023-06-05T12:22:03.391Z,29.05
2023-06-05T12:24:30.243Z,29.56
2023-06-05T12:26:59.594Z,30.06
2023-06-05T12:29:34.837Z,29.44
2023-06-05T12:32:03.579Z,29.28
2023-06-05T12:34:56.928Z,29.28
2023-06-05T12:37:36.236Z,29.63
2023-06-05T12:40:06.750Z,29.05
2023-06-05T12:42:36.942Z,29.08
2023-06-05T12:45:07.822Z,29.13
2023-06-05T12:47:35.411Z,28.47
2023-06-05T12:50:07.773Z,28.70
2023-06-05T12:52:35.212Z,29.20
2023-06-05T12:55:02.527Z,29.24
2023-06-05T12:57:29.271Z,28.87
2023-06-05T13:00:02.103Z,29.37
2023-06-05T13:02:28.952Z,29.18
2023-06-05T13:04:55.944Z,29.38
2023-06-05T13:07:25.716Z,28.81
2023-06-05T13:09:57.194Z,27.69
2023-06-05T13:12:23.969Z,28.08
2023-06-05T13:14:50.756Z,27.90
2023-06-05T13:17:20.665Z,27.88
2023-06-05T13:19:47.744Z,27.94
2023-06-05T13:22:14.695Z,28.12
2023-06-05T13:24:41.372Z,28.27
2023-06-05T13:27:08.159Z,27.53
2023-06-05T13:29:35.134Z,27.84
2023-06-05T13:32:01.998Z,27.87
2023-06-05T13:34:30.310Z,28.00
2023-06-05T13:37:02.679Z,29.26
2023-06-05T13:39:37.073Z,29.54
2023-06-05T13:42:04.003Z,28.93
2023-06-05T13:44:33.501Z,28.71
2023-06-05T13:47:02.402Z,29.03
2023-06-05T13:49:29.552Z,30.88
2023-06-05T13:51:56.475Z,29.52
2023-06-05T13:54:23.715Z,29.66
2023-06-05T13:56:50.624Z,28.85
2023-06-05T13:59:17.576Z,29.48
2023-06-05T14:01:44.330Z,28.89
2023-06-05T14:04:11.522Z,29.61
2023-06-05T14:06:38.260Z,29.95
2023-06-05T14:09:05.662Z,29.05
2023-06-05T14:11:32.829Z,29.18
2023-06-05T14:13:59.597Z,29.01
2023-06-05T14:16:27.319Z,29.32
2023-06-05T14:18:54.078Z,28.93
2023-06-05T14:21:23.260Z,29.09
2023-06-05T14:23:51.247Z,29.13
2023-06-05T14:26:21.140Z,29.96
2023-06-05T14:28:47.823Z,29.68
2023-06-05T14:31:16.586Z,29.73
2023-06-05T14:33:43.563Z,29.52
2023-06-05T14:36:10.511Z,28.62
2023-06-05T14:38:37.669Z,29.50
2023-06-05T14:41:04.583Z,29.61
2023-06-05T14:43:31.272Z,28.95
2023-06-05T14:45:58.027Z,29.44
2023-06-05T14:48:24.926Z,29.30
2023-06-05T14:50:51.760Z,29.36
2023-06-05T14:53:18.641Z,29.50
2023-06-05T14:55:46.184Z,29.71
2023-06-05T14:58:12.917Z,30.36
2023-06-05T15:00:42.324Z,29.41
2023-06-05T15:03:09.706Z,29.61
2023-06-05T15:05:36.595Z,29.53
2023-06-05T15:08:03.695Z,29.27
2023-06-05T15:10:30.722Z,29.18
2023-06-05T15:12:57.607Z,29.94
2023-06-05T15:15:27.565Z,30.71
2023-06-05T15:17:54.290Z,31.26
2023-06-05T15:20:24.673Z,30.38
2023-06-05T15:23:11.405Z,30.72
2023-06-05T15:25:40.742Z,30.65
2023-06-05T15:28:07.453Z,31.33
2023-06-05T15:30:34.199Z,30.62
2023-06-05T15:33:01.119Z,30.59
2023-06-05T15:35:27.822Z,29.99
2023-06-05T15:37:54.618Z,30.42
2023-06-05T15:40:21.404Z,32.10
2023-06-05T15:43:03.490Z,31.09
2023-06-05T15:45:30.191Z,30.87
2023-06-05T15:47:56.870Z,30.01
2023-06-05T15:50:23.757Z,30.53
2023-06-05T15:52:50.799Z,30.47
2023-06-05T15:55:17.561Z,30.08
2023-06-05T15:57:44.433Z,29.99
2023-06-05T16:00:11.607Z,30.46
2023-06-05T16:02:41.320Z,30.36
2023-06-05T16:05:09.056Z,30.77
2023-06-05T16:07:36.021Z,30.55
2023-06-05T16:10:03.255Z,30.89
2023-06-05T16:12:29.970Z,30.36
2023-06-05T16:14:56.907Z,31.07
2023-06-05T16:17:23.977Z,31.15
2023-06-05T16:19:52.949Z,32.07
2023-06-05T16:22:20.578Z,32.44
2023-06-05T16:24:47.309Z,31.74
2023-06-05T16:27:14.274Z,32.42
2023-06-05T16:29:41.068Z,32.97
2023-06-05T16:32:08.081Z,33.00
2023-06-05T16:34:34.939Z,32.71
2023-06-05T16:37:01.758Z,33.30
2023-06-05T16:39:28.576Z,33.35
2023-06-05T16:41:55.345Z,32.57
2023-06-05T16:44:22.260Z,33.85
2023-06-05T16:46:49.155Z,33.27
2023-06-05T16:49:15.965Z,34.02
2023-06-05T16:51:42.754Z,33.59
2023-06-05T16:54:09.499Z,33.42
2023-06-05T16:56:36.446Z,33.85
2023-06-05T16:59:13.589Z,34.34
2023-06-05T17:01:40.377Z,33.92
2023-06-05T17:04:08.885Z,34.77
2023-06-05T17:06:36.399Z,34.98
2023-06-05T17:09:03.696Z,35.09
2023-06-05T17:11:30.618Z,35.89
2023-06-05T17:13:57.322Z,35.42
2023-06-05T17:16:24.339Z,35.21
2023-06-05T17:18:51.106Z,35.56
2023-06-05T17:21:17.979Z,36.04
2023-06-05T17:23:44.908Z,36.26
2023-06-05T17:26:11.638Z,36.48
2023-06-05T17:28:41.199Z,36.55
2023-06-05T17:31:08.379Z,37.37
2023-06-05T17:33:35.344Z,37.39
2023-06-05T17:36:02.126Z,37.77
2023-06-05T17:38:28.783Z,37.75
2023-06-05T17:40:55.420Z,38.04
2023-06-05T17:43:22.244Z,38.36
2023-06-05T17:45:49.098Z,38.42
2023-06-05T17:48:16.150Z,38.50
2023-06-05T17:50:44.067Z,38.65
2023-06-05T17:53:10.962Z,38.62
2023-06-05T17:55:37.691Z,38.96
2023-06-05T17:58:04.463Z,39.50
2023-06-05T18:00:31.575Z,40.02
2023-06-05T18:02:58.729Z,39.79
2023-06-05T18:05:28.294Z,41.90
2023-06-05T18:07:54.967Z,40.91
2023-06-05T18:10:22.033Z,41.05
2023-06-05T18:12:49.107Z,41.42
2023-06-05T18:15:15.917Z,41.38
2023-06-05T18:17:42.631Z,41.21
2023-06-05T18:20:10.050Z,41.50
2023-06-05T18:22:36.845Z,41.67
2023-06-05T18:25:04.079Z,41.87
2023-06-05T18:27:30.764Z,41.95
2023-06-05T18:29:57.458Z,41.82
2023-06-05T18:32:24.153Z,42.21
2023-06-05T18:34:50.927Z,42.13
2023-06-05T18:37:17.658Z,42.25
2023-06-05T18:39:44.557Z,42.79
2023-06-05T18:42:11.302Z,42.96
2023-06-05T18:44:38.892Z,42.97
2023-06-05T18:47:07.787Z,43.26
2023-06-05T18:49:34.551Z,42.59
2023-06-05T18:52:03.006Z,42.59
2023-06-05T18:54:29.870Z,42.61
2023-06-05T18:56:56.611Z,43.06
2023-06-05T18:59:23.255Z,43.78
2023-06-05T19:01:50.096Z,44.42
2023-06-05T19:04:16.840Z,45.14
2023-06-05T19:06:43.884Z,45.91
2023-06-05T19:09:10.549Z,46.69
2023-06-05T19:11:38.931Z,46.91
2023-06-05T19:14:05.910Z,47.36
2023-06-05T19:16:32.913Z,48.71
2023-06-05T19:18:59.797Z,48.88
2023-06-05T19:21:26.738Z,49.41
2023-06-05T19:23:53.502Z,50.34
2023-06-05T19:26:20.236Z,49.78
2023-06-05T19:28:46.915Z,49.86
2023-06-05T19:31:13.838Z,50.21
2023-06-05T19:33:41.593Z,50.08
2023-06-05T19:36:08.620Z,50.45
2023-06-05T19:38:35.504Z,50.94
2023-06-05T19:41:02.211Z,51.22
2023-06-05T19:43:29.271Z,51.31
2023-06-05T19:45:56.142Z,51.48
2023-06-05T19:48:23.036Z,51.69
2023-06-05T19:50:49.897Z,51.43
2023-06-05T19:53:19.589Z,51.80
2023-06-05T19:55:46.590Z,51.60
2023-06-05T19:58:13.464Z,52.19
2023-06-05T20:00:41.650Z,51.90
2023-06-05T20:03:08.512Z,52.40
2023-06-05T20:05:35.236Z,53.24
2023-06-05T20:08:02.023Z,53.21
2023-06-05T20:10:29.249Z,52.93
2023-06-05T20:12:55.950Z,52.98
2023-06-05T20:15:22.584Z,53.30
2023-06-05T20:17:49.317Z,53.32
2023-06-05T20:20:16.010Z,53.67
2023-06-05T20:22:42.717Z,54.03
2023-06-05T20:25:09.916Z,54.19
2023-06-05T20:27:36.778Z,54.47
2023-06-05T20:30:03.626Z,54.47
2023-06-05T20:32:30.327Z,54.58
2023-06-05T20:34:57.097Z,54.94
2023-06-05T20:37:23.728Z,55.12
2023-06-05T20:39:50.404Z,54.89
2023-06-05T20:42:17.138Z,55.67
2023-06-05T20:44:43.912Z,55.74
2023-06-05T20:47:10.714Z,56.17
2023-06-05T20:49:37.426Z,56.15
2023-06-05T20:52:04.655Z,56.14
2023-06-05T20:54:31.390Z,56.33
2023-06-05T20:57:09.078Z,56.85
2023-06-05T20:59:35.775Z,57.27
2023-06-05T21:02:02.547Z,57.82
2023-06-05T21:04:29.579Z,57.52
2023-06-05T21:06:56.302Z,57.75
2023-06-05T21:09:23.103Z,57.80
2023-06-05T21:11:49.846Z,58.81
2023-06-05T21:14:16.525Z,58.67
2023-06-05T21:16:43.279Z,58.87
2023-06-05T21:19:10.002Z,59.10
2023-06-05T21:21:36.696Z,60.17
2023-06-05T21:24:03.595Z,60.00
2023-06-05T21:26:30.474Z,60.63
2023-06-05T21:28:57.253Z,60.56
2023-06-05T21:31:23.956Z,61.12
2023-06-05T21:33:50.778Z,61.88
2023-06-05T21:36:17.705Z,62.17
2023-06-05T21:38:44.557Z,63.31
2023-06-05T21:41:11.474Z,64.68
2023-06-05T21:43:38.312Z,64.04
2023-06-05T21:46:05.097Z,64.92
2023-06-05T21:48:31.840Z,65.66
2023-06-05T21:50:58.546Z,65.26
2023-06-05T21:53:25.452Z,65.70
2023-06-05T21:55:52.124Z,66.22
2023-06-05T21:58:18.901Z,66.55
2023-06-05T22:00:45.716Z,66.02
2023-06-05T22:03:12.499Z,65.55
2023-06-05T22:05:39.278Z,65.99
2023-06-05T22:08:06.084Z,65.95
2023-06-05T22:10:32.795Z,65.55
2023-06-05T22:12:59.523Z,65.86
2023-06-05T22:15:26.190Z,66.05
2023-06-05T22:17:53.113Z,65.74
2023-06-05T22:20:19.867Z,66.18
2023-06-05T22:22:46.738Z,66.83
2023-06-05T22:25:13.690Z,66.75
2023-06-05T22:27:40.384Z,65.83
2023-06-05T22:30:07.915Z,65.82
2023-06-05T22:32:35.810Z,65.25
2023-06-05T22:35:02.508Z,65.65
2023-06-05T22:37:29.267Z,65.24
2023-06-05T22:39:56.121Z,65.17
2023-06-05T22:42:22.873Z,64.16
2023-06-05T22:44:49.606Z,64.04
2023-06-05T22:47:16.261Z,64.37
2023-06-05T22:49:43.312Z,64.10
2023-06-05T22:52:10.192Z,63.30
2023-06-05T22:54:37.383Z,63.32
2023-06-05T22:57:04.495Z,63.69
2023-06-05T22:59:31.492Z,63.47
2023-06-05T23:01:58.598Z,63.09
2023-06-05T23:04:25.389Z,63.61
2023-06-05T23:06:52.612Z,62.91
2023-06-05T23:09:20.295Z,63.39
2023-06-05T23:11:47.157Z,63.43
2023-06-05T23:14:14.132Z,63.20
2023-06-05T23:16:40.831Z,64.04
2023-06-05T23:19:07.609Z,63.48
2023-06-05T23:21:34.302Z,63.63
2023-06-05T23:24:01.124Z,62.92
2023-06-05T23:26:27.963Z,62.69
2023-06-05T23:28:54.744Z,62.88
2023-06-05T23:31:21.501Z,63.76
2023-06-05T23:33:48.314Z,63.37
2023-06-05T23:36:15.104Z,63.41
2023-06-05T23:38:41.880Z,64.10
2023-06-05T23:41:08.702Z,64.56
2023-06-05T23:43:35.541Z,64.97
2023-06-05T23:46:02.392Z,64.38
2023-06-05T23:48:29.144Z,64.52
2023-06-05T23:50:55.968Z,64.38
2023-06-05T23:53:22.638Z,64.03
2023-06-05T23:55:49.385Z,65.07
2023-06-05T23:58:16.103Z,65.34
